sensor_id;sensor_type;location;lat;lon;timestamp;P1;durP1;ratioP1;P2;durP2;ratioP2
47153;SDS011;32907;41.412;2.164;2023-12-04T00:01:45;5.03;;;3.30;;
47153;SDS011;32907;41.412;2.164;2023-12-04T00:04:13;3.50;;;2.88;;
47153;SDS011;32907;41.412;2.164;2023-12-04T00:06:42;6.65;;;3.13;;
47153;SDS011;32907;41.412;2.164;2023-12-04T00:09:10;4.60;;;2.80;;
47153;SDS011;32907;41.412;2.164;2023-12-04T00:11:39;3.78;;;2.63;;
47153;SDS011;32907;41.412;2.164;2023-12-04T00:14:08;4.47;;;2.90;;
47153;SDS011;32907;41.412;2.164;2023-12-04T00:16:36;4.22;;;2.78;;
47153;SDS011;32907;41.412;2.164;2023-12-04T00:19:04;4.15;;;2.42;;
47153;SDS011;32907;41.412;2.164;2023-12-04T00:21:32;3.50;;;2.30;;
47153;SDS011;32907;41.412;2.164;2023-12-04T00:24:00;3.50;;;2.20;;
47153;SDS011;32907;41.412;2.164;2023-12-04T00:26:28;4.50;;;2.30;;
47153;SDS011;32907;41.412;2.164;2023-12-04T00:28:57;3.80;;;2.30;;
47153;SDS011;32907;41.412;2.164;2023-12-04T00:31:25;3.15;;;1.88;;
47153;SDS011;32907;41.412;2.164;2023-12-04T00:33:53;3.33;;;2.10;;
47153;SDS011;32907;41.412;2.164;2023-12-04T00:36:21;2.97;;;2.00;;
47153;SDS011;32907;41.412;2.164;2023-12-04T00:38:50;3.08;;;2.00;;
47153;SDS011;32907;41.412;2.164;2023-12-04T00:41:18;3.50;;;2.40;;
47153;SDS011;32907;41.412;2.164;2023-12-04T00:43:46;3.30;;;2.45;;
47153;SDS011;32907;41.412;2.164;2023-12-04T00:46:14;3.70;;;3.00;;
47153;SDS011;32907;41.412;2.164;2023-12-04T00:48:42;4.78;;;2.53;;
47153;SDS011;32907;41.412;2.164;2023-12-04T00:51:10;3.20;;;2.08;;
47153;SDS011;32907;41.412;2.164;2023-12-04T00:53:38;3.20;;;2.25;;
47153;SDS011;32907;41.412;2.164;2023-12-04T00:56:07;2.28;;;1.90;;
47153;SDS011;32907;41.412;2.164;2023-12-04T00:58:36;2.45;;;1.58;;
47153;SDS011;32907;41.412;2.164;2023-12-04T01:01:04;3.50;;;1.60;;
47153;SDS011;32907;41.412;2.164;2023-12-04T01:03:32;2.40;;;1.48;;
47153;SDS011;32907;41.412;2.164;2023-12-04T01:06:01;2.88;;;1.70;;
47153;SDS011;32907;41.412;2.164;2023-12-04T01:08:29;3.55;;;1.98;;
47153;SDS011;32907;41.412;2.164;2023-12-04T01:10:57;2.58;;;1.45;;
47153;SDS011;32907;41.412;2.164;2023-12-04T01:13:25;1.90;;;1.27;;
47153;SDS011;32907;41.412;2.164;2023-12-04T01:15:53;2.90;;;1.33;;
47153;SDS011;32907;41.412;2.164;2023-12-04T01:18:21;1.80;;;0.90;;
47153;SDS011;32907;41.412;2.164;2023-12-04T01:20:50;2.47;;;1.30;;
47153;SDS011;32907;41.412;2.164;2023-12-04T01:23:18;2.25;;;1.30;;
47153;SDS011;32907;41.412;2.164;2023-12-04T01:25:46;2.60;;;1.38;;
47153;SDS011;32907;41.412;2.164;2023-12-04T01:28:14;1.63;;;1.02;;
47153;SDS011;32907;41.412;2.164;2023-12-04T01:30:43;2.47;;;1.33;;
47153;SDS011;32907;41.412;2.164;2023-12-04T01:33:11;1.98;;;1.00;;
47153;SDS011;32907;41.412;2.164;2023-12-04T01:35:39;2.35;;;0.88;;
47153;SDS011;32907;41.412;2.164;2023-12-04T01:38:07;1.38;;;0.80;;
47153;SDS011;32907;41.412;2.164;2023-12-04T01:40:36;1.45;;;0.80;;
47153;SDS011;32907;41.412;2.164;2023-12-04T01:43:04;1.50;;;1.10;;
47153;SDS011;32907;41.412;2.164;2023-12-04T01:45:32;2.17;;;1.08;;
47153;SDS011;32907;41.412;2.164;2023-12-04T01:48:01;1.75;;;1.00;;
47153;SDS011;32907;41.412;2.164;2023-12-04T01:50:31;1.45;;;0.70;;
47153;SDS011;32907;41.412;2.164;2023-12-04T01:52:59;1.55;;;0.90;;
47153;SDS011;32907;41.412;2.164;2023-12-04T01:55:27;2.08;;;0.65;;
47153;SDS011;32907;41.412;2.164;2023-12-04T01:57:57;1.42;;;1.08;;
47153;SDS011;32907;41.412;2.164;2023-12-04T02:00:26;1.15;;;0.70;;
47153;SDS011;32907;41.412;2.164;2023-12-04T02:02:54;1.73;;;0.80;;
47153;SDS011;32907;41.412;2.164;2023-12-04T02:05:23;1.70;;;0.60;;
47153;SDS011;32907;41.412;2.164;2023-12-04T02:07:54;1.98;;;0.80;;
47153;SDS011;32907;41.412;2.164;2023-12-04T02:10:23;1.38;;;0.70;;
47153;SDS011;32907;41.412;2.164;2023-12-04T02:12:52;1.23;;;0.60;;
47153;SDS011;32907;41.412;2.164;2023-12-04T02:15:21;1.08;;;0.50;;
47153;SDS011;32907;41.412;2.164;2023-12-04T02:17:49;1.30;;;0.65;;
47153;SDS011;32907;41.412;2.164;2023-12-04T02:20:17;1.27;;;0.73;;
47153;SDS011;32907;41.412;2.164;2023-12-04T02:22:46;1.10;;;0.60;;
47153;SDS011;32907;41.412;2.164;2023-12-04T02:25:14;2.28;;;0.57;;
47153;SDS011;32907;41.412;2.164;2023-12-04T02:28:01;1.48;;;0.70;;
47153;SDS011;32907;41.412;2.164;2023-12-04T02:30:35;1.15;;;0.50;;
47153;SDS011;32907;41.412;2.164;2023-12-04T02:33:06;1.23;;;0.63;;
47153;SDS011;32907;41.412;2.164;2023-12-04T02:35:35;0.88;;;0.55;;
47153;SDS011;32907;41.412;2.164;2023-12-04T02:38:05;1.13;;;0.68;;
47153;SDS011;32907;41.412;2.164;2023-12-04T02:40:34;1.33;;;0.52;;
47153;SDS011;32907;41.412;2.164;2023-12-04T02:43:03;1.95;;;0.65;;
47153;SDS011;32907;41.412;2.164;2023-12-04T02:45:31;0.90;;;0.60;;
47153;SDS011;32907;41.412;2.164;2023-12-04T02:48:00;1.15;;;0.50;;
47153;SDS011;32907;41.412;2.164;2023-12-04T02:50:29;1.10;;;0.70;;
47153;SDS011;32907;41.412;2.164;2023-12-04T02:52:57;1.30;;;0.65;;
47153;SDS011;32907;41.412;2.164;2023-12-04T02:55:25;1.23;;;0.68;;
47153;SDS011;32907;41.412;2.164;2023-12-04T02:57:53;1.08;;;0.60;;
47153;SDS011;32907;41.412;2.164;2023-12-04T03:00:22;0.82;;;0.50;;
47153;SDS011;32907;41.412;2.164;2023-12-04T03:02:50;1.02;;;0.60;;
47153;SDS011;32907;41.412;2.164;2023-12-04T03:05:19;1.75;;;0.60;;
47153;SDS011;32907;41.412;2.164;2023-12-04T03:07:47;1.30;;;0.60;;
47153;SDS011;32907;41.412;2.164;2023-12-04T03:10:15;2.40;;;0.80;;
47153;SDS011;32907;41.412;2.164;2023-12-04T03:12:43;1.08;;;0.60;;
47153;SDS011;32907;41.412;2.164;2023-12-04T03:15:11;1.70;;;0.63;;
47153;SDS011;32907;41.412;2.164;2023-12-04T03:17:40;1.02;;;0.63;;
47153;SDS011;32907;41.412;2.164;2023-12-04T03:20:08;2.42;;;0.90;;
47153;SDS011;32907;41.412;2.164;2023-12-04T03:22:37;1.70;;;0.82;;
47153;SDS011;32907;41.412;2.164;2023-12-04T03:25:05;0.95;;;0.50;;
47153;SDS011;32907;41.412;2.164;2023-12-04T03:27:34;1.25;;;0.57;;
47153;SDS011;32907;41.412;2.164;2023-12-04T03:30:02;1.55;;;0.50;;
47153;SDS011;32907;41.412;2.164;2023-12-04T03:32:30;1.25;;;0.50;;
47153;SDS011;32907;41.412;2.164;2023-12-04T03:34:59;1.23;;;0.63;;
47153;SDS011;32907;41.412;2.164;2023-12-04T03:37:27;2.05;;;0.75;;
47153;SDS011;32907;41.412;2.164;2023-12-04T03:39:55;1.52;;;0.88;;
47153;SDS011;32907;41.412;2.164;2023-12-04T03:42:23;1.30;;;0.50;;
47153;SDS011;32907;41.412;2.164;2023-12-04T03:44:52;1.38;;;0.60;;
47153;SDS011;32907;41.412;2.164;2023-12-04T03:47:20;1.83;;;0.70;;
47153;SDS011;32907;41.412;2.164;2023-12-04T03:49:48;0.60;;;0.45;;
47153;SDS011;32907;41.412;2.164;2023-12-04T03:52:16;1.00;;;0.55;;
47153;SDS011;32907;41.412;2.164;2023-12-04T03:54:45;1.20;;;0.60;;
47153;SDS011;32907;41.412;2.164;2023-12-04T03:57:13;0.85;;;0.50;;
47153;SDS011;32907;41.412;2.164;2023-12-04T03:59:43;1.42;;;0.60;;
47153;SDS011;32907;41.412;2.164;2023-12-04T04:02:12;1.38;;;0.70;;
47153;SDS011;32907;41.412;2.164;2023-12-04T04:04:40;1.38;;;0.70;;
47153;SDS011;32907;41.412;2.164;2023-12-04T04:07:09;2.63;;;0.80;;
47153;SDS011;32907;41.412;2.164;2023-12-04T04:09:37;2.03;;;0.45;;
47153;SDS011;32907;41.412;2.164;2023-12-04T04:12:05;2.53;;;0.88;;
47153;SDS011;32907;41.412;2.164;2023-12-04T04:14:33;1.63;;;0.77;;
47153;SDS011;32907;41.412;2.164;2023-12-04T04:17:02;1.80;;;0.90;;
47153;SDS011;32907;41.412;2.164;2023-12-04T04:19:30;3.17;;;0.73;;
47153;SDS011;32907;41.412;2.164;2023-12-04T04:21:59;1.90;;;0.80;;
47153;SDS011;32907;41.412;2.164;2023-12-04T04:24:27;1.55;;;0.75;;
47153;SDS011;32907;41.412;2.164;2023-12-04T04:26:56;2.42;;;0.90;;
47153;SDS011;32907;41.412;2.164;2023-12-04T04:29:24;1.17;;;0.57;;
47153;SDS011;32907;41.412;2.164;2023-12-04T04:31:52;1.30;;;0.70;;
47153;SDS011;32907;41.412;2.164;2023-12-04T04:34:21;1.33;;;0.75;;
47153;SDS011;32907;41.412;2.164;2023-12-04T04:36:49;1.50;;;0.70;;
47153;SDS011;32907;41.412;2.164;2023-12-04T04:39:17;1.73;;;0.80;;
47153;SDS011;32907;41.412;2.164;2023-12-04T04:41:45;2.53;;;0.80;;
47153;SDS011;32907;41.412;2.164;2023-12-04T04:44:13;1.98;;;0.60;;
47153;SDS011;32907;41.412;2.164;2023-12-04T04:46:41;1.15;;;0.70;;
47153;SDS011;32907;41.412;2.164;2023-12-04T04:49:09;1.33;;;0.70;;
47153;SDS011;32907;41.412;2.164;2023-12-04T04:51:38;1.98;;;0.68;;
47153;SDS011;32907;41.412;2.164;2023-12-04T04:54:06;1.58;;;0.50;;
47153;SDS011;32907;41.412;2.164;2023-12-04T04:56:34;1.73;;;0.90;;
47153;SDS011;32907;41.412;2.164;2023-12-04T04:59:02;3.10;;;0.90;;
47153;SDS011;32907;41.412;2.164;2023-12-04T05:01:31;1.48;;;0.75;;
47153;SDS011;32907;41.412;2.164;2023-12-04T05:03:58;1.23;;;0.52;;
47153;SDS011;32907;41.412;2.164;2023-12-04T05:06:27;1.92;;;0.80;;
47153;SDS011;32907;41.412;2.164;2023-12-04T05:08:55;2.15;;;0.70;;
47153;SDS011;32907;41.412;2.164;2023-12-04T05:11:26;1.20;;;0.70;;
47153;SDS011;32907;41.412;2.164;2023-12-04T05:13:54;1.42;;;0.65;;
47153;SDS011;32907;41.412;2.164;2023-12-04T05:16:22;1.27;;;0.68;;
47153;SDS011;32907;41.412;2.164;2023-12-04T05:18:50;1.70;;;0.77;;
47153;SDS011;32907;41.412;2.164;2023-12-04T05:21:19;1.20;;;0.63;;
47153;SDS011;32907;41.412;2.164;2023-12-04T05:23:47;1.67;;;0.70;;
47153;SDS011;32907;41.412;2.164;2023-12-04T05:26:15;1.80;;;0.68;;
47153;SDS011;32907;41.412;2.164;2023-12-04T05:28:43;2.47;;;1.05;;
47153;SDS011;32907;41.412;2.164;2023-12-04T05:31:11;1.60;;;0.80;;
47153;SDS011;32907;41.412;2.164;2023-12-04T05:33:40;1.77;;;0.90;;
47153;SDS011;32907;41.412;2.164;2023-12-04T05:36:11;1.23;;;0.70;;
47153;SDS011;32907;41.412;2.164;2023-12-04T05:38:40;2.35;;;1.05;;
47153;SDS011;32907;41.412;2.164;2023-12-04T05:41:08;3.13;;;1.00;;
47153;SDS011;32907;41.412;2.164;2023-12-04T05:43:36;4.38;;;1.30;;
47153;SDS011;32907;41.412;2.164;2023-12-04T05:46:04;2.58;;;1.40;;
47153;SDS011;32907;41.412;2.164;2023-12-04T05:48:33;2.55;;;1.38;;
47153;SDS011;32907;41.412;2.164;2023-12-04T05:51:01;2.03;;;1.30;;
47153;SDS011;32907;41.412;2.164;2023-12-04T05:53:29;1.92;;;1.30;;
47153;SDS011;32907;41.412;2.164;2023-12-04T05:55:57;2.95;;;1.27;;
47153;SDS011;32907;41.412;2.164;2023-12-04T05:58:25;2.25;;;1.50;;
47153;SDS011;32907;41.412;2.164;2023-12-04T06:00:53;4.45;;;2.55;;
47153;SDS011;32907;41.412;2.164;2023-12-04T06:03:21;4.25;;;3.15;;
47153;SDS011;32907;41.412;2.164;2023-12-04T06:05:50;4.88;;;3.45;;
47153;SDS011;32907;41.412;2.164;2023-12-04T06:08:23;5.50;;;4.00;;
47153;SDS011;32907;41.412;2.164;2023-12-04T06:10:51;4.45;;;3.28;;
47153;SDS011;32907;41.412;2.164;2023-12-04T06:13:20;4.22;;;2.70;;
47153;SDS011;32907;41.412;2.164;2023-12-04T06:15:48;2.65;;;1.90;;
47153;SDS011;32907;41.412;2.164;2023-12-04T06:18:16;3.03;;;1.67;;
47153;SDS011;32907;41.412;2.164;2023-12-04T06:20:45;2.30;;;1.58;;
47153;SDS011;32907;41.412;2.164;2023-12-04T06:23:13;2.95;;;1.90;;
47153;SDS011;32907;41.412;2.164;2023-12-04T06:25:42;3.28;;;2.22;;
47153;SDS011;32907;41.412;2.164;2023-12-04T06:28:11;6.95;;;3.05;;
47153;SDS011;32907;41.412;2.164;2023-12-04T06:30:40;11.48;;;4.53;;
47153;SDS011;32907;41.412;2.164;2023-12-04T06:33:08;14.73;;;5.70;;
47153;SDS011;32907;41.412;2.164;2023-12-04T06:35:37;7.40;;;4.18;;
47153;SDS011;32907;41.412;2.164;2023-12-04T06:38:06;5.25;;;2.53;;
47153;SDS011;32907;41.412;2.164;2023-12-04T06:40:35;9.02;;;2.60;;
47153;SDS011;32907;41.412;2.164;2023-12-04T06:43:04;7.45;;;2.70;;
47153;SDS011;32907;41.412;2.164;2023-12-04T06:45:33;5.60;;;2.45;;
47153;SDS011;32907;41.412;2.164;2023-12-04T06:48:01;5.32;;;2.30;;
47153;SDS011;32907;41.412;2.164;2023-12-04T06:50:30;4.25;;;1.63;;
47153;SDS011;32907;41.412;2.164;2023-12-04T06:52:58;3.58;;;1.80;;
47153;SDS011;32907;41.412;2.164;2023-12-04T06:55:27;4.63;;;1.83;;
47153;SDS011;32907;41.412;2.164;2023-12-04T06:57:55;4.88;;;1.88;;
47153;SDS011;32907;41.412;2.164;2023-12-04T07:00:23;3.05;;;1.10;;
47153;SDS011;32907;41.412;2.164;2023-12-04T07:02:52;4.00;;;1.85;;
47153;SDS011;32907;41.412;2.164;2023-12-04T07:05:20;3.00;;;1.67;;
47153;SDS011;32907;41.412;2.164;2023-12-04T07:07:49;3.28;;;1.50;;
47153;SDS011;32907;41.412;2.164;2023-12-04T07:10:17;2.30;;;1.50;;
47153;SDS011;32907;41.412;2.164;2023-12-04T07:12:45;3.03;;;1.48;;
47153;SDS011;32907;41.412;2.164;2023-12-04T07:15:14;3.92;;;1.60;;
47153;SDS011;32907;41.412;2.164;2023-12-04T07:17:42;3.55;;;1.77;;
47153;SDS011;32907;41.412;2.164;2023-12-04T07:20:10;8.57;;;4.93;;
47153;SDS011;32907;41.412;2.164;2023-12-04T07:22:39;11.55;;;6.80;;
47153;SDS011;32907;41.412;2.164;2023-12-04T07:25:07;6.70;;;4.80;;
47153;SDS011;32907;41.412;2.164;2023-12-04T07:27:36;7.47;;;4.15;;
47153;SDS011;32907;41.412;2.164;2023-12-04T07:30:05;7.05;;;3.78;;
47153;SDS011;32907;41.412;2.164;2023-12-04T07:32:34;7.15;;;4.57;;
47153;SDS011;32907;41.412;2.164;2023-12-04T07:35:03;9.20;;;3.97;;
47153;SDS011;32907;41.412;2.164;2023-12-04T07:37:32;7.13;;;3.50;;
47153;SDS011;32907;41.412;2.164;2023-12-04T07:40:00;4.55;;;2.10;;
47153;SDS011;32907;41.412;2.164;2023-12-04T07:42:30;4.13;;;2.20;;
47153;SDS011;32907;41.412;2.164;2023-12-04T07:44:58;5.38;;;2.20;;
47153;SDS011;32907;41.412;2.164;2023-12-04T07:47:26;6.53;;;3.00;;
47153;SDS011;32907;41.412;2.164;2023-12-04T07:49:54;6.38;;;2.60;;
47153;SDS011;32907;41.412;2.164;2023-12-04T07:52:22;4.03;;;2.35;;
47153;SDS011;32907;41.412;2.164;2023-12-04T07:54:51;3.60;;;2.00;;
47153;SDS011;32907;41.412;2.164;2023-12-04T07:57:20;5.90;;;2.17;;
47153;SDS011;32907;41.412;2.164;2023-12-04T07:59:48;4.85;;;2.08;;
47153;SDS011;32907;41.412;2.164;2023-12-04T08:02:18;4.07;;;1.48;;
47153;SDS011;32907;41.412;2.164;2023-12-04T08:04:47;4.07;;;1.38;;
47153;SDS011;32907;41.412;2.164;2023-12-04T08:07:14;4.10;;;1.50;;
47153;SDS011;32907;41.412;2.164;2023-12-04T08:09:43;4.18;;;1.50;;
47153;SDS011;32907;41.412;2.164;2023-12-04T08:12:11;3.08;;;1.30;;
47153;SDS011;32907;41.412;2.164;2023-12-04T08:14:40;5.07;;;1.70;;
47153;SDS011;32907;41.412;2.164;2023-12-04T08:17:08;1.80;;;1.05;;
47153;SDS011;32907;41.412;2.164;2023-12-04T08:19:36;3.95;;;1.38;;
47153;SDS011;32907;41.412;2.164;2023-12-04T08:22:06;3.58;;;1.75;;
47153;SDS011;32907;41.412;2.164;2023-12-04T08:24:34;6.00;;;1.42;;
47153;SDS011;32907;41.412;2.164;2023-12-04T08:27:02;3.30;;;1.52;;
47153;SDS011;32907;41.412;2.164;2023-12-04T08:29:30;4.13;;;1.17;;
47153;SDS011;32907;41.412;2.164;2023-12-04T08:31:58;2.70;;;1.60;;
47153;SDS011;32907;41.412;2.164;2023-12-04T08:34:26;3.58;;;1.40;;
47153;SDS011;32907;41.412;2.164;2023-12-04T08:36:54;5.35;;;1.73;;
47153;SDS011;32907;41.412;2.164;2023-12-04T08:39:23;5.43;;;1.30;;
47153;SDS011;32907;41.412;2.164;2023-12-04T08:41:51;2.40;;;1.48;;
47153;SDS011;32907;41.412;2.164;2023-12-04T08:44:29;3.88;;;1.70;;
47153;SDS011;32907;41.412;2.164;2023-12-04T08:46:57;3.42;;;1.92;;
47153;SDS011;32907;41.412;2.164;2023-12-04T08:49:27;3.20;;;1.45;;
47153;SDS011;32907;41.412;2.164;2023-12-04T08:52:09;4.13;;;1.50;;
47153;SDS011;32907;41.412;2.164;2023-12-04T08:54:41;3.20;;;1.45;;
47153;SDS011;32907;41.412;2.164;2023-12-04T08:57:09;4.55;;;1.20;;
47153;SDS011;32907;41.412;2.164;2023-12-04T08:59:37;5.38;;;1.42;;
47153;SDS011;32907;41.412;2.164;2023-12-04T09:02:05;4.68;;;1.40;;
47153;SDS011;32907;41.412;2.164;2023-12-04T09:04:36;8.50;;;2.00;;
47153;SDS011;32907;41.412;2.164;2023-12-04T09:07:40;7.55;;;1.80;;
47153;SDS011;32907;41.412;2.164;2023-12-04T09:10:28;7.43;;;1.60;;
47153;SDS011;32907;41.412;2.164;2023-12-04T09:13:16;3.60;;;1.67;;
47153;SDS011;32907;41.412;2.164;2023-12-04T09:15:44;5.10;;;1.52;;
47153;SDS011;32907;41.412;2.164;2023-12-04T09:18:13;3.35;;;1.60;;
47153;SDS011;32907;41.412;2.164;2023-12-04T09:20:43;3.92;;;1.83;;
47153;SDS011;32907;41.412;2.164;2023-12-04T09:23:12;2.92;;;1.77;;
47153;SDS011;32907;41.412;2.164;2023-12-04T09:25:40;6.07;;;1.90;;
47153;SDS011;32907;41.412;2.164;2023-12-04T09:28:09;3.50;;;1.90;;
47153;SDS011;32907;41.412;2.164;2023-12-04T09:30:37;2.20;;;1.30;;
47153;SDS011;32907;41.412;2.164;2023-12-04T09:33:07;3.85;;;1.58;;
47153;SDS011;32907;41.412;2.164;2023-12-04T09:35:35;4.78;;;1.73;;
47153;SDS011;32907;41.412;2.164;2023-12-04T09:38:03;2.72;;;1.60;;
47153;SDS011;32907;41.412;2.164;2023-12-04T09:40:31;3.20;;;1.48;;
47153;SDS011;32907;41.412;2.164;2023-12-04T09:43:00;7.05;;;1.40;;
47153;SDS011;32907;41.412;2.164;2023-12-04T09:45:28;2.67;;;1.13;;
47153;SDS011;32907;41.412;2.164;2023-12-04T09:48:01;2.95;;;1.30;;
47153;SDS011;32907;41.412;2.164;2023-12-04T09:50:35;4.65;;;1.15;;
47153;SDS011;32907;41.412;2.164;2023-12-04T09:53:05;4.38;;;1.23;;
47153;SDS011;32907;41.412;2.164;2023-12-04T09:55:37;1.73;;;0.85;;
47153;SDS011;32907;41.412;2.164;2023-12-04T09:58:06;4.00;;;0.95;;
47153;SDS011;32907;41.412;2.164;2023-12-04T10:00:35;2.95;;;0.90;;
47153;SDS011;32907;41.412;2.164;2023-12-04T10:03:04;2.63;;;1.23;;
47153;SDS011;32907;41.412;2.164;2023-12-04T10:05:33;2.03;;;1.17;;
47153;SDS011;32907;41.412;2.164;2023-12-04T10:08:01;2.72;;;1.10;;
47153;SDS011;32907;41.412;2.164;2023-12-04T10:10:29;2.80;;;1.13;;
47153;SDS011;32907;41.412;2.164;2023-12-04T10:12:57;2.20;;;1.05;;
47153;SDS011;32907;41.412;2.164;2023-12-04T10:15:26;1.63;;;0.93;;
47153;SDS011;32907;41.412;2.164;2023-12-04T10:17:54;1.65;;;0.90;;
47153;SDS011;32907;41.412;2.164;2023-12-04T10:20:22;1.50;;;0.77;;
47153;SDS011;32907;41.412;2.164;2023-12-04T10:22:56;1.10;;;0.57;;
47153;SDS011;32907;41.412;2.164;2023-12-04T10:25:26;1.20;;;0.65;;
47153;SDS011;32907;41.412;2.164;2023-12-04T10:28:09;5.82;;;1.00;;
47153;SDS011;32907;41.412;2.164;2023-12-04T10:30:39;1.83;;;1.08;;
47153;SDS011;32907;41.412;2.164;2023-12-04T10:33:08;2.78;;;0.93;;
47153;SDS011;32907;41.412;2.164;2023-12-04T10:35:37;2.38;;;1.33;;
47153;SDS011;32907;41.412;2.164;2023-12-04T10:38:06;2.25;;;1.10;;
47153;SDS011;32907;41.412;2.164;2023-12-04T10:40:37;4.32;;;1.20;;
47153;SDS011;32907;41.412;2.164;2023-12-04T10:45:36;2.25;;;1.20;;
47153;SDS011;32907;41.412;2.164;2023-12-04T10:48:06;2.17;;;0.70;;
47153;SDS011;32907;41.412;2.164;2023-12-04T10:50:36;1.15;;;0.60;;
47153;SDS011;32907;41.412;2.164;2023-12-04T10:53:08;1.50;;;0.70;;
47153;SDS011;32907;41.412;2.164;2023-12-04T10:55:39;0.95;;;0.60;;
47153;SDS011;32907;41.412;2.164;2023-12-04T10:58:11;2.20;;;0.88;;
47153;SDS011;32907;41.412;2.164;2023-12-04T11:00:44;1.33;;;0.73;;
47153;SDS011;32907;41.412;2.164;2023-12-04T11:03:20;1.58;;;1.10;;
47153;SDS011;32907;41.412;2.164;2023-12-04T11:05:55;2.10;;;1.08;;
47153;SDS011;32907;41.412;2.164;2023-12-04T11:08:32;1.95;;;1.10;;
47153;SDS011;32907;41.412;2.164;2023-12-04T11:11:02;3.17;;;1.00;;
47153;SDS011;32907;41.412;2.164;2023-12-04T11:13:34;2.65;;;1.10;;
47153;SDS011;32907;41.412;2.164;2023-12-04T11:16:12;4.15;;;1.30;;
47153;SDS011;32907;41.412;2.164;2023-12-04T11:18:43;3.53;;;1.40;;
47153;SDS011;32907;41.412;2.164;2023-12-04T11:21:13;3.83;;;1.27;;
47153;SDS011;32907;41.412;2.164;2023-12-04T11:23:41;2.90;;;1.10;;
47153;SDS011;32907;41.412;2.164;2023-12-04T11:26:10;2.53;;;0.98;;
47153;SDS011;32907;41.412;2.164;2023-12-04T11:28:39;2.17;;;1.10;;
47153;SDS011;32907;41.412;2.164;2023-12-04T11:31:07;5.70;;;1.13;;
47153;SDS011;32907;41.412;2.164;2023-12-04T11:33:36;3.72;;;1.00;;
47153;SDS011;32907;41.412;2.164;2023-12-04T11:36:09;3.58;;;0.95;;
47153;SDS011;32907;41.412;2.164;2023-12-04T11:38:44;5.60;;;1.10;;
47153;SDS011;32907;41.412;2.164;2023-12-04T11:41:21;3.40;;;1.05;;
47153;SDS011;32907;41.412;2.164;2023-12-04T11:43:54;3.65;;;1.30;;
47153;SDS011;32907;41.412;2.164;2023-12-04T11:46:25;4.50;;;1.40;;
47153;SDS011;32907;41.412;2.164;2023-12-04T11:48:54;3.78;;;0.95;;
47153;SDS011;32907;41.412;2.164;2023-12-04T11:54:10;5.35;;;1.00;;
47153;SDS011;32907;41.412;2.164;2023-12-04T11:56:57;1.60;;;1.00;;
47153;SDS011;32907;41.412;2.164;2023-12-04T11:59:27;2.50;;;0.98;;
47153;SDS011;32907;41.412;2.164;2023-12-04T12:01:56;3.83;;;1.20;;
47153;SDS011;32907;41.412;2.164;2023-12-04T12:04:26;2.90;;;1.50;;
47153;SDS011;32907;41.412;2.164;2023-12-04T12:06:58;3.45;;;1.88;;
47153;SDS011;32907;41.412;2.164;2023-12-04T12:09:30;2.80;;;1.50;;
47153;SDS011;32907;41.412;2.164;2023-12-04T12:12:00;3.25;;;1.58;;
47153;SDS011;32907;41.412;2.164;2023-12-04T12:14:29;2.90;;;1.45;;
47153;SDS011;32907;41.412;2.164;2023-12-04T12:16:59;2.00;;;1.42;;
47153;SDS011;32907;41.412;2.164;2023-12-04T12:19:28;2.40;;;1.70;;
47153;SDS011;32907;41.412;2.164;2023-12-04T12:21:56;2.35;;;1.25;;
47153;SDS011;32907;41.412;2.164;2023-12-04T12:24:25;2.78;;;1.30;;
47153;SDS011;32907;41.412;2.164;2023-12-04T12:26:54;2.50;;;1.20;;
47153;SDS011;32907;41.412;2.164;2023-12-04T12:29:24;4.47;;;1.30;;
47153;SDS011;32907;41.412;2.164;2023-12-04T12:31:52;2.90;;;1.40;;
47153;SDS011;32907;41.412;2.164;2023-12-04T12:34:20;1.83;;;1.20;;
47153;SDS011;32907;41.412;2.164;2023-12-04T12:36:49;3.80;;;1.65;;
47153;SDS011;32907;41.412;2.164;2023-12-04T12:39:17;3.63;;;1.65;;
47153;SDS011;32907;41.412;2.164;2023-12-04T12:41:50;3.53;;;2.00;;
47153;SDS011;32907;41.412;2.164;2023-12-04T12:44:19;5.72;;;2.10;;
47153;SDS011;32907;41.412;2.164;2023-12-04T12:46:50;3.40;;;1.98;;
47153;SDS011;32907;41.412;2.164;2023-12-04T12:49:20;3.28;;;1.95;;
47153;SDS011;32907;41.412;2.164;2023-12-04T12:52:04;2.63;;;1.80;;
47153;SDS011;32907;41.412;2.164;2023-12-04T12:54:42;4.72;;;2.47;;
47153;SDS011;32907;41.412;2.164;2023-12-04T12:57:12;3.70;;;2.10;;
47153;SDS011;32907;41.412;2.164;2023-12-04T12:59:40;5.03;;;2.25;;
47153;SDS011;32907;41.412;2.164;2023-12-04T13:02:09;4.53;;;2.55;;
47153;SDS011;32907;41.412;2.164;2023-12-04T13:04:39;3.90;;;2.60;;
47153;SDS011;32907;41.412;2.164;2023-12-04T13:07:09;5.15;;;2.40;;
47153;SDS011;32907;41.412;2.164;2023-12-04T13:09:39;4.75;;;2.63;;
47153;SDS011;32907;41.412;2.164;2023-12-04T13:12:07;4.28;;;2.42;;
47153;SDS011;32907;41.412;2.164;2023-12-04T13:14:37;7.32;;;3.20;;
47153;SDS011;32907;41.412;2.164;2023-12-04T13:17:07;3.58;;;2.67;;
47153;SDS011;32907;41.412;2.164;2023-12-04T13:19:37;4.38;;;2.90;;
47153;SDS011;32907;41.412;2.164;2023-12-04T13:22:05;4.10;;;2.90;;
47153;SDS011;32907;41.412;2.164;2023-12-04T13:24:34;4.47;;;2.92;;
47153;SDS011;32907;41.412;2.164;2023-12-04T13:27:02;4.70;;;2.90;;
47153;SDS011;32907;41.412;2.164;2023-12-04T13:29:31;3.40;;;2.60;;
47153;SDS011;32907;41.412;2.164;2023-12-04T13:31:59;3.50;;;2.70;;
47153;SDS011;32907;41.412;2.164;2023-12-04T13:34:27;4.03;;;2.63;;
47153;SDS011;32907;41.412;2.164;2023-12-04T13:36:56;4.22;;;2.80;;
47153;SDS011;32907;41.412;2.164;2023-12-04T13:39:24;5.82;;;2.88;;
47153;SDS011;32907;41.412;2.164;2023-12-04T13:42:06;5.60;;;3.03;;
47153;SDS011;32907;41.412;2.164;2023-12-04T13:44:53;5.75;;;2.90;;
47153;SDS011;32907;41.412;2.164;2023-12-04T13:47:21;5.90;;;3.10;;
47153;SDS011;32907;41.412;2.164;2023-12-04T13:49:49;4.45;;;2.90;;
47153;SDS011;32907;41.412;2.164;2023-12-04T13:52:17;4.10;;;2.33;;
47153;SDS011;32907;41.412;2.164;2023-12-04T13:54:50;4.32;;;3.05;;
47153;SDS011;32907;41.412;2.164;2023-12-04T13:57:21;4.82;;;2.97;;
47153;SDS011;32907;41.412;2.164;2023-12-04T13:59:56;4.65;;;2.55;;
47153;SDS011;32907;41.412;2.164;2023-12-04T14:02:25;3.85;;;2.20;;
47153;SDS011;32907;41.412;2.164;2023-12-04T14:04:54;4.15;;;2.45;;
47153;SDS011;32907;41.412;2.164;2023-12-04T14:07:23;4.30;;;2.45;;
47153;SDS011;32907;41.412;2.164;2023-12-04T14:09:53;4.38;;;2.03;;
47153;SDS011;32907;41.412;2.164;2023-12-04T14:12:21;3.05;;;1.67;;
47153;SDS011;32907;41.412;2.164;2023-12-04T14:14:50;3.10;;;1.63;;
47153;SDS011;32907;41.412;2.164;2023-12-04T14:17:24;3.40;;;1.45;;
47153;SDS011;32907;41.412;2.164;2023-12-04T14:19:53;4.25;;;1.20;;
47153;SDS011;32907;41.412;2.164;2023-12-04T14:22:21;3.10;;;1.40;;
47153;SDS011;32907;41.412;2.164;2023-12-04T14:24:49;1.63;;;0.98;;
47153;SDS011;32907;41.412;2.164;2023-12-04T14:27:18;1.42;;;0.82;;
47153;SDS011;32907;41.412;2.164;2023-12-04T14:29:46;2.15;;;0.80;;
47153;SDS011;32907;41.412;2.164;2023-12-04T14:32:15;3.08;;;0.63;;
47153;SDS011;32907;41.412;2.164;2023-12-04T14:34:45;1.23;;;0.60;;
47153;SDS011;32907;41.412;2.164;2023-12-04T14:37:14;1.30;;;0.70;;
47153;SDS011;32907;41.412;2.164;2023-12-04T14:39:42;2.58;;;1.20;;
47153;SDS011;32907;41.412;2.164;2023-12-04T14:42:10;2.40;;;0.70;;
47153;SDS011;32907;41.412;2.164;2023-12-04T14:44:39;1.63;;;0.80;;
47153;SDS011;32907;41.412;2.164;2023-12-04T14:47:07;2.60;;;0.82;;
47153;SDS011;32907;41.412;2.164;2023-12-04T14:49:36;3.22;;;0.73;;
47153;SDS011;32907;41.412;2.164;2023-12-04T14:52:05;2.80;;;0.88;;
47153;SDS011;32907;41.412;2.164;2023-12-04T14:54:35;1.52;;;0.77;;
47153;SDS011;32907;41.412;2.164;2023-12-04T15:00:02;3.13;;;1.50;;
47153;SDS011;32907;41.412;2.164;2023-12-04T15:02:37;2.65;;;1.30;;
47153;SDS011;32907;41.412;2.164;2023-12-04T15:05:25;3.75;;;1.52;;
47153;SDS011;32907;41.412;2.164;2023-12-04T15:08:11;2.30;;;1.40;;
47153;SDS011;32907;41.412;2.164;2023-12-04T15:10:52;2.58;;;1.00;;